x

9063063 - Cleveland, Oh (cndo1) Weather Station

10:54am - Mon 5th Dec 2016 All times are CST. -6 hours from GMT.

  • Wind
    13mph, 18mph gusts
  • Air Temp 39°f
  • Sea Pressure 1018.3mb
  • 9063063 - Cleveland, Oh
  • 9063063 - Cleveland, Oh

More Historic Weather Station data

Upgrade to MSW Pro to gain access to the past 30 days of data for over 8000 Wavebouys and Weather Stations around the globe.

Join Pro

Comparision Forecast

View Surf forecast
   
Mon 12/05 10:54am 13 18 mph 1018.3mb 39f
10:48am 10 17 mph 1018.5mb 39f
10:42am 11 16 mph 1018.6mb 39f
10:36am 9 15 mph 1018.5mb 38f
10:30am 11 16 mph 1018.6mb 38f
10:24am 13 17 mph 1018.5mb 38f
10:18am 10 17 mph 1018.4mb 38f
10:12am 13 18 mph 1018.3mb 38f
10:06am 14 18 mph 1018.3mb 38f
10:00am 14 18 mph 1018.3mb 38f
9:54am 15 18 mph 1018.4mb 38f
9:48am 15 18 mph 1018.3mb 38f
9:42am 15 18 mph 1018.3mb 38f
9:36am 14 17 mph 1018.3mb 38f
9:30am 14 16 mph 1018.4mb 38f
9:24am 10 17 mph 1018.4mb 38f
9:18am 10 16 mph 1018.3mb 38f
9:12am 13 16 mph 1018.2mb 38f
9:06am 10 15 mph 1018.1mb 38f
9:00am 8 14 mph 1018.1mb 38f
8:54am 10 14 mph 1018.1mb 38f
8:48am 10 16 mph 1018.1mb 38f
8:42am 10 14 mph 1018.1mb 38f
8:36am 10 15 mph 1018mb 38f
8:30am 10 17 mph 1018mb 38f
8:24am 10 17 mph 1017.9mb 38f
8:18am 11 22 mph 1017.8mb 38f
8:12am 14 21 mph 1017.8mb 38f
8:06am 14 20 mph 1017.8mb 38f
8:00am 16 22 mph 1017.7mb 38f
7:54am 16 22 mph 1017.6mb 38f
7:48am 15 21 mph 1017.5mb 38f
7:42am 10 16 mph 1017.3mb 38f
7:36am 10 15 mph 1017.2mb 38f
7:30am 13 17 mph 1017.1mb 38f
7:24am 10 17 mph 1017mb 38f
7:18am 16 21 mph 1016.9mb 38f
7:12am 15 20 mph 1016.9mb 38f
7:06am 11 14 mph 1016.8mb 38f
7:00am 10 15 mph 1016.8mb 38f
6:54am 8 15 mph 1016.7mb 38f
6:48am 10 15 mph 1016.6mb 38f
6:42am 9 15 mph 1016.4mb 38f
6:36am 9 14 mph 1016.5mb 38f
6:30am 9 15 mph 1016.4mb 38f
6:24am 10 15 mph 1016.4mb 38f
6:18am 10 17 mph 1016.4mb 38f
6:12am 10 14 mph 1016.4mb 38f
6:06am 11 17 mph 1016.4mb 38f
6:00am 16 23 mph 1016.4mb 39f
5:54am 20 23 mph 1016.1mb 40f
5:48am 18 23 mph 1015.9mb 40f
5:42am 20 24 mph 1015.7mb 40f
5:36am 21 25 mph 1015.6mb 40f
5:30am 20 24 mph 1015.5mb 40f
5:24am 21 25 mph 1015.4mb 40f
5:18am 23 28 mph 1015.5mb 40f
5:12am 24 30 mph 1015.4mb 40f
5:06am 24 33 mph 1015.4mb 40f
5:00am 23 28 mph 1015.3mb 40f
4:54am 24 28 mph 1015.1mb 40f
4:48am 23 31 mph 1015mb 39f
4:42am 24 28 mph 1014.8mb 39f
4:36am 26 32 mph 1014.7mb 40f
4:30am 26 31 mph 1014.5mb 40f
4:24am 24 32 mph 1014.3mb 39f
4:18am 28 34 mph 1014.2mb 39f
4:12am 25 34 mph 1014.3mb 39f
4:06am 26 34 mph 1014.3mb 39f
4:00am 29 33 mph 1014.2mb 39f
3:54am 26 32 mph 1014mb 39f
3:48am 28 33 mph 1014mb 39f
3:42am 26 32 mph 1013.6mb 39f
3:36am 28 32 mph 1013.5mb 39f
3:30am 28 33 mph 1013.4mb 39f
3:24am 26 32 mph 1013.1mb 39f
3:18am 28 34 mph 1013.1mb 40f
3:12am 26 31 mph 1012.8mb 39f
3:06am 25 31 mph 1012.7mb 40f
3:00am 28 32 mph 1012.5mb 40f
2:54am 26 31 mph 1012.3mb 40f
2:48am 29 31 mph 1012.3mb 40f
2:42am 29 34 mph 1012.2mb 40f
2:36am 30 36 mph 1012.2mb 40f
2:30am 26 32 mph 1012.2mb 40f
2:24am 28 36 mph 1012.3mb 40f
2:18am 30 37 mph 1012.3mb 40f
2:12am 31 36 mph 1012.4mb 40f
2:06am 32 37 mph 1012.2mb 40f
2:00am 29 34 mph 1012mb 40f
1:54am 30 34 mph 1011.9mb 40f
1:48am 28 32 mph 1011.8mb 40f
1:42am 26 30 mph 1011.7mb 40f
1:36am 20 26 mph 1011.6mb 40f
1:30am 23 26 mph 1011.4mb 40f
1:24am 22 32 mph 1011.4mb 40f
1:18am 21 24 mph 1011.2mb 40f
1:12am 14 22 mph 1011mb 40f
1:06am 15 23 mph 1010.9mb 40f
1:00am 15 26 mph 1010.7mb 40f
12:54am 15 22 mph 1010.4mb 40f
12:48am 15 26 mph 1010.3mb 40f
12:42am 16 23 mph 1010.2mb 40f
12:36am 13 23 mph 1010.1mb 40f
12:30am 15 24 mph 1010mb 40f
12:24am 16 26 mph 1010.1mb 40f
12:18am 15 23 mph 1010.1mb 40f
12:12am 15 26 mph 1009.9mb 40f
12:06am 9 20 mph 1009.9mb 39f
12:00am 10 15 mph 1009.9mb 39f
Sun 12/04 11:54pm 6 10 mph 1009.9mb 38f
11:48pm 9 14 mph 1009.7mb -
11:42pm 8 14 mph 1009.6mb -
11:36pm 7 13 mph 1009.5mb -
11:30pm 8 14 mph 1009.4mb 37f
11:24pm 7 16 mph 1009.2mb 37f
11:18pm 6 14 mph 1009.2mb 37f
11:12pm 9 16 mph 1009.3mb 37f
11:06pm 7 17 mph 1009.3mb 37f
11:00pm 7 14 mph 1009.3mb 37f
10:54pm 8 15 mph 1009.4mb 37f
10:48pm 6 15 mph 1009.3mb 37f
10:42pm 7 15 mph 1009.4mb 37f
10:36pm 7 13 mph 1009.5mb 37f
10:30pm 7 14 mph 1009.3mb 37f
10:24pm 7 14 mph 1009.3mb 37f
10:18pm 6 13 mph 1009.4mb 37f
10:12pm 6 13 mph 1009.6mb 37f
10:06pm 6 16 mph 1009.7mb 37f
10:00pm 5 11 mph 1009.7mb 37f
9:54pm 7 14 mph 1009.7mb 36f
9:48pm 7 13 mph 1009.5mb 36f
9:42pm 7 15 mph 1009.7mb 36f
9:36pm 6 10 mph 1009.7mb 36f
9:30pm 5 13 mph 1009.6mb 36f
9:24pm 3 10 mph 1009.1mb 36f
9:18pm 3 7 mph 1009.3mb 36f
9:12pm 3 9 mph 1009.3mb 36f
9:06pm 2 7 mph 1009.3mb 35f
9:00pm 3 10 mph 1009.4mb 35f
8:54pm 3 8 mph 1009.7mb 35f
8:48pm 2 10 mph 1010mb 35f
8:42pm 2 7 mph 1010.2mb 35f
8:36pm 2 6 mph 1010.5mb 35f
8:30pm 2 7 mph 1010.9mb 36f
8:24pm 3 8 mph 1010.9mb 36f
8:18pm 5 9 mph 1010.9mb 36f
8:12pm 5 10 mph 1011.1mb 36f
8:06pm 5 9 mph 1011.2mb 37f
8:00pm 5 10 mph 1011.8mb 37f
7:54pm 3 6 mph 1012mb 37f
7:48pm 3 7 mph 1011.8mb 37f
7:42pm 5 9 mph 1011.8mb 38f
7:36pm 3 10 mph 1011.7mb 38f
7:30pm 3 10 mph 1011.7mb 38f
7:24pm 3 10 mph 1011.8mb 39f
7:18pm 6 15 mph 1011.8mb 40f
7:12pm 5 11 mph 1011.8mb 41f
7:06pm 5 10 mph 1011.7mb 40f
7:00pm 2 9 mph 1011.7mb 41f
6:54pm 6 10 mph 1011.9mb 41f
6:48pm 3 6 mph 1012.3mb 40f
6:42pm  -  6 mph 1012.5mb 40f
6:36pm 2 8 mph 1012.8mb 41f
6:30pm 5 8 mph 1012.8mb 40f
6:24pm 2 5 mph 1012.9mb 40f
6:18pm 2 7 mph 1013mb 40f
6:12pm 1 7 mph 1013.2mb 40f
6:06pm 5 8 mph 1013.2mb 40f
6:00pm 7 14 mph 1013.1mb 40f
5:54pm 8 13 mph 1013.3mb 40f
5:48pm 2 7 mph 1014mb 40f
5:42pm 6 9 mph 1014.3mb 40f
5:36pm 3 7 mph 1014.4mb 40f
5:30pm 1 5 mph 1014.7mb 40f
5:24pm 2 8 mph 1014.9mb 40f
5:18pm 5 9 mph 1014.8mb 40f
5:12pm 2 7 mph 1014.7mb 40f
5:06pm 5 11 mph 1014.8mb 40f
5:00pm 2 8 mph 1015.1mb 40f
4:54pm 2 7 mph 1015.4mb 40f
4:48pm 1 6 mph 1015.4mb 40f
4:42pm 5 8 mph 1015.6mb 40f
4:36pm 2 8 mph 1015.8mb 40f
4:30pm 2 13 mph 1016mb 40f
4:24pm 2 3 mph 1016.1mb 40f
4:18pm 1 8 mph 1016.2mb 40f
4:12pm 1 6 mph 1016.1mb 40f
4:06pm 1 9 mph 1016.2mb 40f
4:00pm 5 8 mph 1016.1mb 40f
3:54pm 3 8 mph 1016.2mb 40f
3:48pm 2 7 mph 1016.3mb 40f
3:42pm 5 9 mph 1016.3mb 40f
3:36pm 3 10 mph 1016.1mb 40f
3:30pm 3 8 mph 1016.1mb 40f
3:24pm 5 11 mph 1016.3mb 40f
3:18pm 7 13 mph 1016.4mb 40f
3:12pm 3 10 mph 1016.6mb 40f
3:06pm 5 14 mph 1016.7mb 40f
3:00pm 3 11 mph 1016.7mb 40f
2:54pm 5 11 mph 1016.7mb 40f
2:48pm 2 9 mph 1016.9mb 40f
2:42pm 5 9 mph 1017mb 40f
2:36pm 6 11 mph 1017.2mb 40f
2:30pm 3 10 mph 1017.3mb 40f
2:24pm 2 9 mph 1017.5mb 40f
2:18pm 5 8 mph 1017.6mb 40f
2:12pm 3 10 mph 1017.7mb 40f
2:06pm 5 11 mph 1017.6mb 40f
2:00pm 3 8 mph 1017.8mb 40f
1:54pm 3 7 mph 1018.1mb 40f
1:48pm 2 6 mph 1018.3mb 40f
1:42pm 2 8 mph 1018.3mb 40f
1:36pm 2 7 mph 1018.4mb 40f
1:30pm 5 9 mph 1018.5mb 40f
1:24pm 2 8 mph 1018.7mb 40f
1:18pm 2 10 mph 1018.8mb 40f
1:12pm 5 10 mph 1018.9mb 40f
1:06pm 5 6 mph 1019mb 40f
1:00pm 1 6 mph 1018.9mb 40f
12:54pm 5 9 mph 1019.2mb 40f
12:48pm 5 9 mph 1019.5mb 40f
12:42pm 2 7 mph 1019.5mb 40f
12:36pm 3 13 mph 1019.8mb 40f
12:30pm 3 9 mph 1020mb 40f
12:24pm 3 9 mph 1020.3mb 40f
12:18pm  -  7 mph 1020.5mb 40f
12:12pm 5 7 mph 1020.6mb 40f
12:06pm 6 10 mph 1020.6mb 40f
12:00pm 3 10 mph 1020.6mb 40f
11:54am 2 10 mph 1020.7mb 40f
11:48am 3 7 mph 1020.8mb 40f
11:42am 3 8 mph 1020.6mb 40f
11:36am 3 7 mph 1020.7mb 40f
11:30am 5 10 mph 1021.1mb 40f
11:24am 6 10 mph 1021.3mb 40f
11:18am 5 8 mph 1021.5mb 40f
11:12am 2 7 mph 1021.5mb 40f
11:06am 2 7 mph 1021.6mb 40f
11:00am 5 7 mph 1021.8mb 40f
10:54am 2 9 mph 1022mb 40f
10:48am 3 7 mph 1022.3mb 40f
10:42am 5 9 mph 1022.4mb 40f
10:36am 2 7 mph 1022.5mb 39f
10:30am 3 8 mph 1022.7mb 39f
10:24am 1 10 mph 1022.8mb 39f
10:18am 3 6 mph 1022.9mb 39f
10:12am 3 6 mph 1022.9mb 39f
10:06am 1 3 mph 1023.2mb 39f
10:00am 2 6 mph 1023.4mb 39f
9:54am 2 3 mph 1023.4mb 39f
9:48am 2 6 mph 1023.4mb 39f
9:42am 2 5 mph 1023.6mb 38f
9:36am 1 6 mph 1023.5mb 39f
9:30am 2 6 mph 1023.5mb 38f
9:24am 1 6 mph 1023.9mb 38f
9:18am 1 3 mph 1023.8mb 38f
9:12am 2 3 mph 1024mb 38f
9:06am 2 3 mph 1024mb 38f
9:00am 3 5 mph 1023.9mb 38f
8:54am 1 5 mph 1024.1mb 38f
8:48am 2 3 mph 1024.2mb 38f
8:42am 2 5 mph 1024.1mb 37f
8:36am 2 3 mph 1023.9mb 37f
8:30am 1 2 mph 1023.8mb 38f
8:24am 2 3 mph 1023.8mb 37f
8:18am  -  6 mph 1024mb 38f
8:12am 2 5 mph 1024mb 38f
8:06am  -  3 mph 1023.9mb 38f
8:00am 1 2 mph 1023.8mb 37f
7:54am  -  mph 1023.9mb 37f
7:48am  -  mph 1023.9mb 37f
7:42am  -  mph 1023.9mb 36f
7:36am  -  mph 1023.9mb 36f
7:30am  -  mph 1024.1mb 35f
7:24am  -  mph 1024.2mb 35f
7:18am  -  mph 1024.2mb 35f
7:12am  -  mph 1024.2mb 35f
7:06am  -  mph 1024mb 35f
7:00am  -  mph 1023.9mb 35f
6:54am  -  mph 1024.1mb 35f
6:48am  -  mph 1024.2mb 35f
6:42am  -  mph 1024.1mb 34f
6:36am  -  mph 1024.1mb 35f
6:30am  -  mph 1023.9mb 34f
6:24am  -  mph 1024mb 34f
6:18am  -  mph 1024mb 35f
6:12am  -  mph 1024.1mb 35f
6:06am  -  mph 1024.3mb 35f
6:00am  -  mph 1024.2mb 35f
5:54am  -  mph 1024.2mb 35f
5:48am  -  mph 1024.1mb 35f
5:42am  -  mph 1024.2mb 35f
5:36am  -  mph 1024.3mb 35f
5:30am  -  mph 1024.2mb 35f
5:24am  -  mph 1024.4mb 35f
5:18am  -  mph 1024.4mb 36f
5:12am  -  mph 1024.3mb 36f
5:06am  -  mph 1024.4mb 36f
5:00am  -  mph 1024.4mb 36f
4:54am  -  mph 1024.4mb 36f
4:48am  -  mph 1024.4mb 37f
4:42am  -  mph 1024.5mb 37f
4:36am  -  mph 1024.5mb 37f
4:30am  -  mph 1024.6mb 37f
4:24am  -  mph 1024.5mb 37f
4:18am  -  mph 1024.3mb 36f
4:12am  -  mph 1024.4mb 37f
4:06am  -  mph 1024.5mb 37f
4:00am  -  mph 1024.6mb 37f
3:54am  -  mph 1024.8mb 37f
3:48am  -  mph 1024.7mb 37f
3:42am  -  mph 1024.5mb 37f
3:36am  -  mph 1024.4mb 37f
3:30am  -  mph 1024.5mb 37f
3:24am  -  mph 1024.6mb 37f
3:18am  -  mph 1024.7mb 37f
3:12am  -  mph 1024.7mb 37f
3:06am  -  mph 1024.6mb 37f
3:00am  -  mph 1024.5mb 37f
2:54am  -  mph 1024.6mb 37f
2:48am  -  mph 1024.8mb 37f
2:42am  -  mph 1024.9mb 37f
2:36am  -  mph 1025mb 37f
2:30am  -  mph 1025mb 37f
2:24am  -  mph 1025.1mb 37f
2:18am  -  mph 1025.2mb 37f
2:12am  -  mph 1025.4mb 37f
2:06am  -  mph 1025.5mb 37f
2:00am  -  mph 1025.5mb 37f
1:54am  -  mph 1025.7mb 37f
1:48am  -  mph 1025.8mb 37f
1:42am  -  mph 1025.7mb 37f
1:36am  -  mph 1025.6mb 37f
1:30am  -  mph 1025.5mb 37f
1:24am  -  mph 1025.4mb 37f
1:18am  -  mph 1025.3mb 37f
1:12am  -  mph 1025.5mb 37f
1:06am  -  mph 1025.5mb 37f
1:00am  -  mph 1025.6mb 37f
12:54am  -  mph 1025.6mb 37f
12:48am  -  mph 1025.5mb 37f
12:42am  -  mph 1025.4mb 37f
12:36am  -  mph 1025.5mb 37f
12:30am  -  mph 1025.4mb 37f
12:24am  -  mph 1025.4mb 37f
12:18am  -  mph 1025.5mb 37f
12:12am  -  mph 1025.4mb 37f
12:06am  -  mph 1025.5mb 37f
12:00am  -  mph 1025.5mb 37f
Sat 12/03 11:54pm  -  mph 1025.6mb 37f
11:48pm  -  mph 1025.6mb 37f
11:42pm  -  mph 1025.6mb 37f
11:36pm  -  mph 1025.6mb 38f
11:30pm  -  mph 1025.6mb 38f
11:24pm  -  mph 1025.5mb 38f
11:18pm  -  mph 1025.5mb 38f
11:12pm  -  mph 1025.5mb 37f
11:06pm  -  mph 1025.4mb 38f
11:00pm  -  mph 1025.4mb 38f
10:54pm  -  mph 1025.5mb 38f
10:48pm  -  mph 1025.5mb 38f
10:42pm  -  mph 1025.6mb 38f
10:36pm  -  mph 1025.8mb 38f
10:30pm  -  mph 1025.8mb 38f
10:24pm  -  mph 1025.7mb 38f
10:18pm  -  mph 1025.8mb 38f
10:12pm  -  mph 1025.8mb 38f
10:06pm  -  mph 1025.8mb 38f
10:00pm  -  mph 1025.7mb 38f
9:54pm  -  mph 1025.7mb 38f
9:48pm  -  mph 1025.7mb 38f
9:42pm  -  mph 1025.7mb 38f
9:36pm  -  mph 1025.6mb 38f
9:30pm  -  mph 1025.6mb 38f
9:24pm  -  mph 1025.6mb 38f
9:18pm  -  mph 1025.6mb 38f
9:12pm  -  mph 1025.6mb 38f
9:06pm  -  mph 1025.7mb 38f
9:00pm  -  mph 1025.7mb 38f
8:54pm  -  mph 1025.7mb 38f
8:48pm  -  mph 1025.7mb 38f
8:42pm  -  mph 1025.6mb 38f
8:36pm  -  mph 1025.6mb 38f
8:30pm  -  mph 1025.7mb 38f
8:24pm  -  mph 1025.5mb 38f
8:18pm  -  mph 1025.5mb 38f
8:12pm  -  mph 1025.4mb 38f
8:06pm  -  mph 1025.4mb 38f
8:00pm  -  mph 1025.4mb 38f
7:54pm  -  mph 1025.3mb 38f
7:48pm  -  mph 1025.3mb 38f
7:42pm  -  mph 1025.3mb 38f
7:36pm  -  mph 1025.3mb 38f
7:30pm  -  mph 1025.2mb 38f
7:24pm  -  mph 1025.4mb 38f
7:18pm  -  mph 1025.4mb 38f
7:12pm  -  mph 1025.4mb 38f
7:06pm  -  mph 1025.4mb 38f
7:00pm  -  mph 1025.5mb 38f
6:54pm  -  mph 1025.4mb 38f
6:48pm  -  mph 1025.3mb 38f
6:42pm  -  mph 1025.4mb 38f
6:36pm  -  mph 1025.5mb 38f
6:30pm  -  mph 1025.6mb 38f
6:24pm  -  mph 1025.6mb 38f
6:18pm  -  mph 1025.6mb 38f
6:12pm  -  mph 1025.6mb 38f
6:06pm  -  mph 1025.6mb 39f
6:00pm  -  mph 1025.7mb 39f
5:54pm  -  mph 1025.6mb 39f
5:48pm  -  mph 1025.7mb 39f
5:42pm  -  mph 1025.7mb 39f
5:36pm  -  mph 1025.7mb 39f
5:30pm  -  mph 1025.6mb 39f
5:24pm  -  mph 1025.7mb 39f
5:18pm  -  mph 1025.7mb 39f
5:12pm  -  mph 1025.7mb 39f
5:06pm  -  mph 1025.8mb 39f
5:00pm  -  mph 1025.8mb 39f
4:54pm  -  mph 1025.8mb 39f
4:48pm  -  mph 1025.9mb 39f
4:42pm  -  mph 1025.9mb 39f
4:36pm  -  mph 1025.8mb 39f
4:30pm  -  mph 1025.9mb 39f
4:24pm  -  mph 1025.8mb 39f
4:18pm  -  mph 1025.8mb 39f
4:12pm  -  mph 1025.7mb 39f
4:06pm  -  mph 1025.7mb 39f
4:00pm  -  mph 1025.8mb 39f
3:54pm 16 20 mph 1025.8mb 39f
3:48pm 16 20 mph 1025.9mb 39f
3:42pm 15 18 mph 1025.9mb 39f
3:36pm 16 21 mph 1025.9mb 39f
3:30pm 18 21 mph 1025.8mb 39f
3:24pm 16 18 mph 1025.8mb 39f
3:18pm 17 18 mph 1025.8mb 39f
3:12pm 16 17 mph 1025.7mb 39f
3:06pm 15 20 mph 1025.6mb 39f
3:00pm 15 18 mph 1025.6mb 39f
2:54pm 16 18 mph 1025.6mb 39f
2:48pm 16 20 mph 1025.6mb 39f
2:42pm 18 21 mph 1025.6mb 39f
2:36pm 16 21 mph 1025.7mb 39f
2:30pm 17 20 mph 1025.8mb 39f
2:24pm 17 23 mph 1025.9mb 39f
2:18pm 16 20 mph 1025.9mb 39f
2:12pm 13 21 mph 1025.9mb 38f
2:06pm 17 21 mph 1025.8mb 39f
2:00pm 15 20 mph 1025.8mb 38f
1:54pm 16 18 mph 1025.8mb 38f
1:48pm 16 20 mph 1025.7mb 38f
1:42pm 16 20 mph 1025.6mb 38f
1:36pm 16 20 mph 1025.3mb 39f
1:30pm 17 20 mph 1025.4mb 39f
1:24pm 17 21 mph 1025.3mb 39f
1:18pm 15 18 mph 1025.2mb 38f
1:12pm 16 20 mph 1025.2mb 39f
1:06pm 18 21 mph 1025.2mb 39f
1:00pm 18 23 mph 1025.4mb 39f
12:54pm 20 25 mph 1025.2mb 39f
12:48pm 22 25 mph 1025.3mb 39f
12:42pm 22 26 mph 1025.2mb 40f
12:36pm 15 18 mph 1025mb 40f
12:30pm 15 17 mph 1024.8mb 40f
12:24pm 14 16 mph 1024.7mb 40f
12:18pm 14 17 mph 1024.4mb 40f
12:12pm 14 16 mph 1024.3mb 40f
12:06pm 14 16 mph 1024.2mb 40f
12:00pm 13 15 mph 1024.3mb 39f
11:54am 13 15 mph 1024.2mb 39f
11:48am 13 15 mph 1024.2mb 39f
11:42am 11 15 mph 1024.4mb 39f
11:36am 13 16 mph 1024.4mb 39f
11:30am 14 15 mph 1024.4mb 40f
11:24am 13 15 mph 1024.4mb 40f
11:18am 14 16 mph 1024.5mb 40f
11:12am 13 16 mph 1024.5mb 40f
11:06am 14 17 mph 1024.6mb 40f
11:00am 13 16 mph 1024.6mb 40f
10:54am 13 17 mph 1024.6mb 40f
10:48am 13 17 mph 1024.7mb 40f
10:42am 13 18 mph 1025mb 39f
10:36am 14 17 mph 1025.3mb 39f
10:30am 14 20 mph 1025.4mb 40f
10:24am 17 21 mph 1025.5mb 40f
10:18am 16 18 mph 1025.6mb 39f
10:12am 15 16 mph 1025.7mb 40f
10:06am 11 16 mph 1025.9mb 39f
10:00am 14 18 mph 1026mb 39f
9:54am 14 17 mph 1026.1mb 39f
9:48am 16 20 mph 1026.1mb 39f
9:42am 15 18 mph 1026.2mb 39f
9:36am 17 20 mph 1026.3mb 39f
9:30am 17 21 mph 1026.3mb 39f
9:24am 17 21 mph 1026.4mb 39f
9:18am 16 20 mph 1026.3mb 39f
9:12am 17 21 mph 1026.3mb 39f
9:06am 17 21 mph 1026.3mb 39f
9:00am 14 16 mph 1026.3mb 39f
8:54am 14 17 mph 1026.2mb 39f
8:48am 15 18 mph 1026.1mb 39f
8:42am 15 18 mph 1026.1mb 39f
8:36am 15 18 mph 1026mb 39f
8:30am 15 16 mph 1026mb 39f
8:24am 15 17 mph 1025.8mb 39f
8:18am 15 17 mph 1025.8mb 39f
8:12am 15 17 mph 1025.8mb 39f
8:06am 15 17 mph 1025.7mb 39f
8:00am 16 18 mph 1025.6mb 39f
7:54am 15 17 mph 1025.5mb 38f
7:48am 15 18 mph 1025.5mb 39f
7:42am 14 17 mph 1025.5mb 39f
7:36am 16 18 mph 1025.6mb 39f
7:30am 15 17 mph 1025.5mb 39f
7:24am 14 18 mph 1025.5mb 38f
7:18am 15 17 mph 1025.5mb 39f
7:12am 15 18 mph 1025.5mb 39f
7:06am 14 18 mph 1025.4mb 39f
7:00am 15 18 mph 1025.5mb 39f
6:54am 13 15 mph 1025.5mb 39f
6:48am 15 16 mph 1025.3mb 39f
6:42am 13 16 mph 1025.3mb 39f
6:36am 14 18 mph 1025.3mb 39f
6:30am 15 18 mph 1025.2mb 39f
6:24am 13 16 mph 1025.3mb 39f
6:18am 14 16 mph 1025.2mb 39f
6:12am 14 17 mph 1025.1mb 39f
6:06am 14 20 mph 1025mb 39f
6:00am 16 21 mph 1024.9mb 39f
5:54am 17 21 mph 1024.9mb 39f
5:48am 17 20 mph 1024.7mb 39f
5:42am 17 20 mph 1024.7mb 39f
5:36am 16 20 mph 1024.6mb 39f
5:30am 15 20 mph 1024.6mb 39f
5:24am 17 20 mph 1024.5mb 39f
5:18am 15 18 mph 1024.5mb 39f
5:12am 17 20 mph 1024.5mb 39f
5:06am 16 21 mph 1024.4mb 39f
5:00am 16 21 mph 1024.4mb 39f
4:54am 16 18 mph 1024.3mb 38f
4:48am 16 21 mph 1024.3mb 38f
4:42am 14 16 mph 1024.2mb 39f
4:36am 15 17 mph 1024.2mb 38f
4:30am 13 17 mph 1024.1mb 38f
4:24am 16 22 mph 1024.2mb 39f
4:18am 16 22 mph 1024.2mb 38f
4:12am 13 17 mph 1024.3mb 38f
4:06am 14 18 mph 1024.3mb 39f
4:00am 15 21 mph 1024.3mb 38f
3:54am 16 20 mph 1024.3mb 39f
3:48am 17 22 mph 1024.1mb 39f
3:42am 17 20 mph 1024mb 39f
3:36am 17 21 mph 1024mb 39f
3:30am 15 22 mph 1024mb 39f
3:24am 16 24 mph 1024mb 39f
3:18am 16 21 mph 1024mb 39f
3:12am 16 20 mph 1023.9mb 39f
3:06am 18 21 mph 1024mb 39f
3:00am 16 21 mph 1024mb 39f
2:54am 16 21 mph 1024mb 39f
2:48am 15 20 mph 1024mb 39f
2:42am 16 20 mph 1024mb 39f
2:36am 14 20 mph 1023.9mb 39f
2:30am 17 22 mph 1023.8mb 39f
2:24am 18 22 mph 1023.7mb 39f
2:18am 17 20 mph 1023.7mb 40f
2:12am 15 17 mph 1023.8mb 39f
2:06am 14 17 mph 1023.8mb 40f
2:00am 15 22 mph 1023.8mb 39f
1:54am 15 20 mph 1023.8mb 39f
1:48am 17 21 mph 1023.7mb 39f
1:42am 15 20 mph 1023.7mb 39f
1:36am 18 21 mph 1023.6mb 39f
1:30am 16 21 mph 1023.6mb 39f
1:24am 18 23 mph 1023.8mb 39f
1:18am 20 23 mph 1023.7mb 39f
1:12am 18 22 mph 1023.6mb 39f
1:06am 17 23 mph 1023.5mb 39f
1:00am 17 21 mph 1023.4mb 39f
12:54am 14 22 mph 1023.4mb 39f
12:48am 17 21 mph 1023.3mb 39f
12:42am 18 22 mph 1023.3mb 39f
12:36am 16 21 mph 1023.3mb 39f
12:30am 16 22 mph 1023.3mb 39f
12:24am 17 21 mph 1023.3mb 39f
12:18am 20 22 mph 1023.3mb 39f
12:12am 18 21 mph 1023.3mb 39f
12:06am 16 22 mph 1023.3mb 39f
12:00am 20 22 mph 1023.3mb 39f
Fri 12/02 11:54pm 18 22 mph 1023.4mb 39f
11:48pm 16 22 mph 1023.4mb 39f
11:42pm 18 23 mph 1023.4mb 39f
11:36pm 17 22 mph 1023.4mb 39f
11:30pm 18 24 mph 1023.3mb 39f
11:24pm 18 22 mph 1023.3mb 39f
11:18pm 17 24 mph 1023.4mb 39f
11:12pm 17 22 mph 1023.4mb 39f
11:06pm 17 23 mph 1023.4mb 39f
11:00pm 20 25 mph 1023.5mb 39f
10:54pm 21 23 mph 1023.4mb 39f
10:48pm 20 25 mph 1023.4mb 39f
10:42pm 21 24 mph 1023.3mb 39f
10:36pm 20 24 mph 1023.3mb 39f
10:30pm 20 24 mph 1023.3mb 39f
10:24pm 20 25 mph 1023.3mb 39f
10:18pm 22 25 mph 1023.2mb 39f
10:12pm 20 25 mph 1023.1mb 39f
10:06pm 20 23 mph 1023.2mb 39f
10:00pm 20 24 mph 1023.1mb 39f
9:54pm 22 25 mph 1023mb 39f
9:48pm 21 24 mph 1022.8mb 39f
9:42pm 21 26 mph 1022.7mb 39f
9:36pm 21 25 mph 1022.7mb 40f
9:30pm 21 26 mph 1022.6mb 40f
9:24pm 22 26 mph 1022.5mb 40f
9:18pm 22 25 mph 1022.5mb 40f
9:12pm 21 25 mph 1022.4mb 40f
9:06pm 21 24 mph 1022.3mb 39f
9:00pm 21 25 mph 1022.2mb 40f
8:54pm 21 24 mph 1022.2mb 40f
8:48pm 21 25 mph 1022.2mb 40f
8:42pm 22 25 mph 1022.1mb 40f
8:36pm 22 25 mph 1022.1mb 40f
8:30pm 22 26 mph 1022.1mb 40f
8:24pm 23 26 mph 1022mb 40f
8:18pm 22 26 mph 1022mb 40f
8:12pm 22 28 mph 1021.9mb 40f
8:06pm 20 26 mph 1021.8mb 40f
8:00pm 23 26 mph 1021.7mb 40f
7:54pm 23 26 mph 1021.6mb 40f
7:48pm 23 28 mph 1021.5mb 40f
7:42pm 24 29 mph 1021.4mb 40f
7:36pm 22 29 mph 1021.4mb 40f
7:30pm 23 28 mph 1021.3mb 40f
7:24pm 25 28 mph 1021.2mb 40f
7:18pm 24 30 mph 1021.1mb 40f
7:12pm 23 29 mph 1021.1mb 40f
7:06pm 23 29 mph 1021.1mb 40f
7:00pm 24 29 mph 1021mb 40f
6:54pm 24 28 mph 1021mb 40f
6:48pm 24 29 mph 1021mb 40f
6:42pm 24 29 mph 1020.9mb 40f
6:36pm 24 30 mph 1020.8mb 40f
6:30pm 22 26 mph 1020.8mb 40f
6:24pm 22 29 mph 1020.7mb 41f
6:18pm 23 28 mph 1020.6mb 41f
6:12pm 25 29 mph 1020.4mb 41f
6:06pm 22 28 mph 1020.3mb 41f
6:00pm 22 31 mph 1020.2mb 41f
5:54pm 24 29 mph 1020.1mb 41f
5:48pm 25 30 mph 1020.1mb 41f
5:30pm 24 29 mph 1019.9mb 41f
5:24pm 23 28 mph 1019.9mb 41f
5:18pm 22 25 mph 1019.8mb 41f
5:12pm 23 28 mph 1019.6mb 41f
5:06pm 23 26 mph 1019.5mb 41f
5:00pm 24 28 mph 1019.4mb 41f
4:54pm 22 25 mph 1019.5mb 42f
4:48pm 24 28 mph 1019.4mb 41f
3:54pm 29 34 mph 1019mb 41f
3:48pm 22 30 mph 1019mb 40f
3:18pm 24 29 mph 1018.5mb 41f
3:12pm 26 30 mph 1018.5mb 42f
3:06pm 24 30 mph 1018.4mb 41f
3:00pm 24 29 mph 1018.3mb 42f
2:54pm 25 31 mph 1018.4mb 42f
2:48pm 25 29 mph 1018.4mb 42f
2:42pm 25 30 mph 1018.3mb 41f
2:36pm 25 33 mph 1018.3mb 41f
2:30pm 26 31 mph 1018.2mb 41f
2:24pm 28 33 mph 1018.2mb 41f
2:18pm 28 33 mph 1018.1mb 42f
2:12pm 25 31 mph 1018mb 41f
2:06pm 28 33 mph 1017.9mb 41f
2:00pm 26 33 mph 1017.8mb 41f
1:54pm 25 31 mph 1017.8mb 41f
1:48pm 28 31 mph 1017.7mb 41f
1:42pm 26 29 mph 1017.6mb 41f
1:36pm 25 30 mph 1017.5mb 41f
1:30pm 25 31 mph 1017.4mb 41f
1:24pm 24 29 mph 1017.4mb 41f
1:18pm 21 28 mph 1017.4mb 40f
1:12pm 22 29 mph 1017.4mb 40f
1:06pm 22 25 mph 1017.4mb 40f
1:00pm 21 28 mph 1017.4mb 39f
12:54pm 26 30 mph 1017.4mb 38f
12:48pm 23 32 mph 1017.3mb 38f
12:42pm 28 33 mph 1017.2mb 40f
12:36pm 25 30 mph 1017mb 41f
12:30pm 26 30 mph 1017mb 41f
12:24pm 23 31 mph 1017mb 41f
12:18pm 26 31 mph 1017mb 41f
12:12pm 24 30 mph 1017.1mb 41f
12:06pm 25 29 mph 1017.1mb 41f
12:00pm 25 31 mph 1017.1mb 41f
11:54am 26 30 mph 1017mb 40f
11:48am 23 29 mph 1017.1mb 40f
11:42am 24 29 mph 1017.1mb 40f
11:36am 23 26 mph 1017.1mb 40f
11:30am 21 26 mph 1017.1mb 40f
11:24am 22 28 mph 1017.1mb 40f
11:18am 22 25 mph 1017.1mb 40f
11:12am 23 28 mph 1017.1mb 40f
11:06am 23 28 mph 1017.1mb 40f
11:00am 22 28 mph 1017.2mb 40f
10:54am 22 25 mph 1017.2mb 39f
10:48am 23 29 mph 1017.2mb 39f
10:42am 23 28 mph 1017.3mb 39f
10:36am 24 28 mph 1017.3mb 39f
10:30am 24 28 mph 1017.4mb 39f
10:24am 24 29 mph 1017.4mb 39f
10:18am 23 28 mph 1017.5mb 39f
10:12am 23 29 mph 1017.5mb 39f
10:06am 22 29 mph 1017.5mb 39f
10:00am 22 30 mph 1017.7mb 39f
9:54am 24 30 mph 1017.6mb 39f
9:48am 25 30 mph 1017.6mb 39f
9:42am 23 30 mph 1017.6mb 39f
9:36am 25 29 mph 1017.5mb 39f
9:30am 24 33 mph 1017.5mb 39f
9:24am 24 30 mph 1017.5mb 40f
9:18am 25 29 mph 1017.5mb 39f
9:12am 24 31 mph 1017.4mb 39f
9:06am 24 31 mph 1017.4mb 39f
9:00am 25 30 mph 1017.3mb 39f
8:54am 24 31 mph 1017.3mb 39f
8:48am 23 29 mph 1017.2mb 39f
8:42am 22 26 mph 1017.2mb 39f
8:36am 23 26 mph 1017.2mb 39f
8:30am 24 28 mph 1017.1mb 39f
8:24am 22 28 mph 1017.1mb 39f
8:18am 22 28 mph 1017mb 39f
8:12am 21 26 mph 1016.9mb 39f
8:06am 22 26 mph 1016.9mb 39f
8:00am 17 28 mph 1016.9mb 39f
7:54am 20 25 mph 1016.9mb 39f
7:48am 21 26 mph 1016.9mb 39f
7:42am 18 24 mph 1016.8mb 38f
7:36am 21 26 mph 1016.7mb 38f
7:30am 20 26 mph 1016.7mb 38f
7:24am 20 24 mph 1016.7mb 38f
7:18am 16 24 mph 1016.6mb 38f
7:12am 23 28 mph 1016.5mb 38f
7:06am 20 26 mph 1016.4mb 38f
7:00am 17 25 mph 1016.4mb 38f
6:54am 18 22 mph 1016.4mb 38f
6:48am 17 24 mph 1016.4mb 38f
6:42am 17 25 mph 1016.4mb 38f
6:36am 22 25 mph 1016.3mb 38f
6:30am 18 24 mph 1016.3mb 38f
6:24am 22 25 mph 1016.2mb 38f
6:18am 21 26 mph 1016.3mb 38f
6:12am 22 24 mph 1016.3mb 38f
6:06am 20 25 mph 1016.2mb 38f
6:00am 18 26 mph 1016.3mb 38f
5:54am 15 23 mph 1016.2mb 38f
5:48am 15 23 mph 1016.1mb 37f
5:42am 14 20 mph 1016.1mb 37f
5:36am 11 24 mph 1016.1mb 37f
5:30am 11 21 mph 1015.9mb 37f
5:24am 13 17 mph 1015.8mb 37f
5:18am 14 21 mph 1015.8mb 37f
5:12am 13 16 mph 1015.8mb 37f
5:06am 13 18 mph 1015.7mb 37f
5:00am 14 20 mph 1015.6mb 37f
4:54am 13 17 mph 1015.6mb 37f
4:48am 13 17 mph 1015.6mb 37f
4:42am 9 16 mph 1015.5mb 37f
4:36am 11 20 mph 1015.4mb 37f
4:30am 14 22 mph 1015.3mb 38f
4:24am 14 21 mph 1015.3mb 38f
4:18am 16 24 mph 1015.3mb 38f
4:12am 16 23 mph 1015.3mb 38f
4:06am 16 22 mph 1015.2mb 38f
4:00am 18 26 mph 1015.2mb 38f
3:54am 18 22 mph 1015.2mb 38f
3:48am 16 24 mph 1015.1mb 38f
3:42am 17 24 mph 1015mb 38f
3:36am 18 26 mph 1014.9mb 38f
3:30am 21 26 mph 1014.9mb 38f
3:24am 20 25 mph 1014.9mb 38f
3:18am 20 25 mph 1014.9mb 38f
3:12am 21 26 mph 1014.9mb 38f
3:06am 20 29 mph 1014.8mb 38f
3:00am 16 26 mph 1014.8mb 38f
2:54am 16 26 mph 1014.8mb 38f
2:48am 15 29 mph 1014.8mb 38f
2:42am 20 26 mph 1014.8mb 39f
2:36am 21 28 mph 1014.7mb 39f
2:30am 23 28 mph 1014.7mb 39f
2:24am 21 26 mph 1014.7mb 39f
2:18am 24 29 mph 1014.6mb 39f
2:12am 23 28 mph 1014.6mb 40f
2:06am 24 28 mph 1014.6mb 40f
2:00am 23 26 mph 1014.5mb 40f
1:54am 24 29 mph 1014.5mb 40f
1:48am 23 29 mph 1014.5mb 40f
1:42am 22 26 mph 1014.5mb 40f
1:36am 22 29 mph 1014.4mb 40f
1:30am 24 28 mph 1014.4mb 40f
1:24am 23 29 mph 1014.4mb 40f
1:18am 23 30 mph 1014.4mb 40f
1:12am 22 25 mph 1014.4mb 40f
1:06am 23 28 mph 1014.2mb 40f
1:00am 23 29 mph 1014.2mb 40f
12:54am 22 28 mph 1014.1mb 40f
12:48am 23 30 mph 1014.1mb 40f
12:42am 25 30 mph 1014mb 40f
12:36am 25 31 mph 1014mb 40f
12:30am 25 30 mph 1013.9mb 40f
12:24am 25 29 mph 1013.9mb 40f
12:18am 26 32 mph 1013.9mb 40f
12:12am 25 30 mph 1013.8mb 40f
12:06am 28 31 mph 1013.7mb 40f
12:00am 25 31 mph 1013.7mb 40f
Thu 12/01 11:54pm 25 32 mph 1013.7mb 40f
11:48pm 23 29 mph 1013.6mb 40f
11:42pm 25 31 mph 1013.6mb 40f
11:36pm 23 32 mph 1013.6mb 40f
11:30pm 24 32 mph 1013.5mb 40f
11:24pm 26 30 mph 1013.5mb 40f
11:18pm 24 30 mph 1013.4mb 40f
11:12pm 18 29 mph 1013.4mb 40f
11:06pm 24 29 mph 1013.4mb 40f
11:00pm 22 30 mph 1013.3mb 40f
10:54pm 26 31 mph 1013.3mb 40f
10:48pm 24 29 mph 1013.2mb 40f
10:42pm 26 32 mph 1013.3mb 41f
10:36pm 25 31 mph 1013.2mb 41f
10:30pm 25 30 mph 1013.2mb 40f
10:24pm 26 30 mph 1013.1mb 41f
10:18pm 25 32 mph 1013.2mb 41f
10:12pm 26 33 mph 1013.1mb 41f
10:06pm 26 32 mph 1013mb 41f
10:00pm 25 30 mph 1013mb 41f
9:54pm 26 33 mph 1012.9mb 41f
9:48pm 25 31 mph 1012.8mb 40f
9:42pm 24 30 mph 1012.8mb 40f
9:36pm 24 30 mph 1012.7mb 40f
9:30pm 22 28 mph 1012.7mb 40f
9:24pm 22 28 mph 1012.6mb 40f
9:18pm 24 29 mph 1012.6mb 40f
9:12pm 24 29 mph 1012.6mb 40f
9:06pm 22 29 mph 1012.6mb 40f
9:00pm 22 26 mph 1012.5mb 40f
8:54pm 24 28 mph 1012.5mb 40f
8:48pm 23 29 mph 1012.5mb 40f
8:30pm 20 28 mph 1012.5mb 40f
8:24pm 16 25 mph 1012.5mb 40f
8:18pm 21 29 mph 1012.5mb 40f
8:12pm 15 25 mph 1012.4mb 40f
8:06pm 15 22 mph 1012.5mb 40f
8:00pm 15 23 mph 1012.4mb 40f
7:54pm 14 25 mph 1012.4mb 40f
7:48pm 16 24 mph 1012.4mb 40f
7:30pm 15 23 mph 1012.4mb 40f
7:24pm 11 21 mph 1012.4mb 40f
7:18pm 13 20 mph 1012.3mb 40f
7:12pm 15 21 mph 1012.3mb 40f
7:06pm 14 21 mph 1012.3mb 39f
7:00pm 15 21 mph 1012.3mb 39f
6:54pm 14 20 mph 1012.3mb 39f
6:48pm 14 24 mph 1012.3mb 39f
6:42pm 14 21 mph 1012.2mb 39f
6:36pm 14 25 mph 1012.2mb 39f
6:30pm 18 25 mph 1012.2mb 40f
6:24pm 15 22 mph 1012.2mb 40f
6:18pm 22 26 mph 1012.2mb 40f
6:12pm 20 26 mph 1012.1mb 40f
6:06pm 18 29 mph 1012.1mb 40f
6:00pm 20 31 mph 1012.1mb 40f
5:54pm 21 29 mph 1012mb 40f
5:48pm 23 29 mph 1012mb 40f